Time;durP1;ratioP1;P1;durP2;ratioP2;P2;SDS_P1;SDS_P2;PMS_P1;PMS_P2;Temp;Humidity;BMP_temperature;BMP_pressure;BME280_temperature;BME280_humidity;BME280_pressure;Samples;Min_cycle;Max_cycle;Signal;HPM_P1;HPM_P2
2023/01/31 00:01:59;;;;;;;23.83;4.22;;;;;;;0.67;100.00;102502.78;5028896;28;20465;-74
2023/01/31 00:04:24;;;;;;;19.50;4.65;;;;;;;0.46;100.00;102462.56;5032165;28;20033;-74
2023/01/31 00:06:50;;;;;;;16.63;3.85;;;;;;;0.32;100.00;102468.75;5028729;28;20026;-74
2023/01/31 00:09:16;;;;;;;20.05;4.93;;;;;;;0.50;100.00;102504.63;5028192;28;20024;-74
2023/01/31 00:11:41;;;;;;;20.10;4.20;;;;;;;0.46;100.00;102505.31;5029231;28;20022;-74
2023/01/31 00:14:09;;;;;;;16.38;4.32;;;;;;;0.49;100.00;102515.69;5027986;28;20484;-74
2023/01/31 00:16:35;;;;;;;24.38;4.15;;;;;;;0.19;100.00;102462.19;5034291;28;20037;-74
2023/01/31 00:19:01;;;;;;;20.20;4.80;;;;;;;0.30;100.00;102502.84;5037253;27;20029;-74
2023/01/31 00:21:28;;;;;;;17.85;4.10;;;;;;;0.34;100.00;102521.00;5025093;28;20438;-74
2023/01/31 00:23:54;;;;;;;23.20;4.55;;;;;;;0.13;100.00;102500.41;5032492;28;20017;-74
2023/01/31 00:26:28;;;;;;;21.42;4.72;;;;;;;0.08;100.00;102496.75;5034236;28;20029;-74
2023/01/31 00:28:56;;;;;;;27.83;5.03;;;;;;;0.29;100.00;102534.44;5029899;28;20036;-74
2023/01/31 00:31:23;;;;;;;19.73;4.40;;;;;;;0.06;100.00;102490.66;5042181;27;20054;-74
2023/01/31 00:33:50;;;;;;;23.70;4.97;;;;;;;0.38;100.00;102525.47;5027186;28;20030;-74
2023/01/31 00:36:20;;;;;;;26.33;5.28;;;;;;;0.27;100.00;102500.16;5027805;28;20033;-74
2023/01/31 00:38:50;;;;;;;23.25;4.80;;;;;;;0.53;100.00;102520.16;5035371;27;20029;-74
2023/01/31 00:41:17;;;;;;;22.30;5.85;;;;;;;0.62;100.00;102514.53;5031532;28;20108;-74
2023/01/31 00:43:42;;;;;;;18.75;4.95;;;;;;;0.68;100.00;102504.53;5031455;28;20376;-74
2023/01/31 00:46:07;;;;;;;23.38;5.07;;;;;;;0.28;100.00;102437.75;5031805;28;20021;-74
2023/01/31 00:48:33;;;;;;;27.70;5.60;;;;;;;0.72;100.00;102511.56;5031663;28;20480;-74
2023/01/31 00:50:58;;;;;;;18.83;4.50;;;;;;;0.63;100.00;102500.91;5031385;28;20009;-74
2023/01/31 00:53:24;;;;;;;23.75;5.85;;;;;;;0.59;100.00;102505.03;5031219;28;20044;-74
2023/01/31 00:56:00;;;;;;;18.33;4.60;;;;;;;0.53;100.00;102512.44;5034502;27;20028;-74
2023/01/31 00:58:25;;;;;;;22.00;5.43;;;;;;;0.43;100.00;102500.91;5031435;28;20029;-74
2023/01/31 01:00:50;;;;;;;27.13;5.88;;;;;;;0.41;100.00;102499.06;5031692;28;20058;-74
2023/01/31 01:03:16;;;;;;;17.95;5.55;;;;;;;0.40;100.00;102500.75;5030764;28;20053;-74
2023/01/31 01:05:41;;;;;;;19.95;5.38;;;;;;;0.33;100.00;102490.16;5031269;28;20033;-74
2023/01/31 01:08:07;;;;;;;19.02;5.88;;;;;;;0.26;100.00;102490.69;5031451;28;20021;-74
2023/01/31 01:10:33;;;;;;;24.98;6.25;;;;;;;0.21;100.00;102472.53;5030473;28;20037;-74
2023/01/31 01:12:58;;;;;;;21.55;6.90;;;;;;;0.25;100.00;102476.09;5034334;28;20037;-74
2023/01/31 01:15:23;;;;;;;34.20;6.35;;;;;;;0.13;100.00;102461.94;5031326;28;20032;-74
2023/01/31 01:17:49;;;;;;;26.33;7.28;;;;;;;0.33;100.00;102487.59;5030944;28;20021;-74
2023/01/31 01:20:15;;;;;;;17.70;7.63;;;;;;;0.27;100.00;102472.81;5030800;28;20421;-74
2023/01/31 01:22:41;;;;;;;24.45;7.07;;;;;;;0.18;100.00;102468.13;5031344;28;20025;-74
2023/01/31 01:25:08;;;;;;;30.33;7.38;;;;;;;0.19;100.00;102461.31;5016929;28;20491;-74
2023/01/31 01:27:33;;;;;;;22.83;7.38;;;;;;;0.08;100.00;102445.44;5030522;28;20377;-74
2023/01/31 01:29:59;;;;;;;24.30;7.03;;;;;;;0.13;100.00;102456.81;5034561;27;20028;-74
2023/01/31 01:32:24;;;;;;;22.73;6.80;;;;;;;-0.13;100.00;102406.00;5031645;28;20541;-74
2023/01/31 01:34:49;;;;;;;22.40;7.32;;;;;;;0.18;100.00;102474.94;5035602;27;20120;-74
2023/01/31 01:37:18;;;;;;;24.52;8.00;;;;;;;0.05;100.00;102460.69;5028442;28;20393;-74
2023/01/31 01:39:48;;;;;;;34.75;8.02;;;;;;;0.01;100.00;102451.13;5022944;28;20032;-74
2023/01/31 01:42:19;;;;;;;29.02;7.55;;;;;;;0.09;100.00;102464.28;5030209;28;20532;-74
2023/01/31 01:44:53;;;;;;;32.67;7.97;;;;;;;0.06;100.00;102462.44;5030858;28;20037;-74
2023/01/31 01:47:34;;;;;;;29.60;7.97;;;;;;;0.01;100.00;102460.50;5025608;27;20062;-73
2023/01/31 01:50:16;;;;;;;29.13;7.93;;;;;;;-0.16;100.00;102431.53;5019784;28;20026;-74
2023/01/31 01:52:47;;;;;;;29.38;8.18;;;;;;;-0.29;100.00;102415.59;5024526;28;20025;-74
2023/01/31 01:55:18;;;;;;;23.30;7.78;;;;;;;-0.24;100.00;102413.22;5030297;28;20025;-74
2023/01/31 01:57:46;;;;;;;27.25;8.20;;;;;;;-0.31;100.00;102399.25;5017051;28;20025;-74
2023/01/31 02:00:20;;;;;;;30.48;8.80;;;;;;;-0.21;100.00;102409.94;5038640;28;20057;-74
2023/01/31 02:02:47;;;;;;;32.80;9.35;;;;;;;-0.01;100.00;102456.16;5045064;28;20111;-74
2023/01/31 02:05:20;;;;;;;24.50;9.10;;;;;;;-0.09;100.00;102446.38;5025641;28;20143;-74
2023/01/31 02:07:46;;;;;;;32.83;9.85;;;;;;;-0.03;100.00;102452.66;5028252;28;20353;-74
2023/01/31 02:10:19;;;;;;;26.90;9.43;;;;;;;-0.05;100.00;102463.66;5033504;28;20073;-74
2023/01/31 02:12:45;;;;;;;32.38;9.85;;;;;;;-0.19;100.00;102444.22;5031783;27;20033;-74
2023/01/31 02:15:10;;;;;;;33.00;9.13;;;;;;;-0.37;100.00;102429.72;5030540;28;20033;-74
2023/01/31 02:17:36;;;;;;;36.63;11.00;;;;;;;-0.20;100.00;102455.25;5041086;27;20495;-74
2023/01/31 02:20:30;;;;;;;33.08;10.10;;;;;;;-0.13;100.00;102467.53;5033682;27;20076;-74
2023/01/31 02:23:23;;;;;;;34.20;9.80;;;;;;;-0.11;100.00;102463.38;5015999;28;20026;-74
2023/01/31 02:26:01;;;;;;;29.75;10.00;;;;;;;-0.15;100.00;102464.91;5020960;28;20032;-74
2023/01/31 02:28:52;;;;;;;28.23;10.15;;;;;;;-0.20;100.00;102470.63;5029539;28;20100;-74
2023/01/31 02:31:17;;;;;;;36.53;10.88;;;;;;;-0.16;100.00;102477.69;5031369;27;20029;-74
2023/01/31 02:33:51;;;;;;;38.72;11.85;;;;;;;-0.28;100.00;102472.84;5030050;28;20109;-74
2023/01/31 02:36:35;;;;;;;;;;;;;;;-0.21;100.00;102485.13;5029706;28;20026;-74
2023/01/31 02:39:16;;;;;;;30.70;10.63;;;;;;;-0.19;100.00;102478.41;5022046;27;19960;-74
2023/01/31 02:41:56;;;;;;;40.70;11.48;;;;;;;-0.14;100.00;102466.66;5029522;28;20109;-74
2023/01/31 02:47:35;;;;;;;40.38;13.00;;;;;;;-0.26;100.00;102438.78;5029868;28;20489;-74
2023/01/31 02:50:13;;;;;;;36.58;12.10;;;;;;;0.02;100.00;102475.94;5029755;28;20029;-74
2023/01/31 02:52:51;;;;;;;36.72;13.15;;;;;;;0.09;100.00;102472.84;5029698;28;20468;-74
2023/01/31 02:58:13;;;;;;;40.60;13.35;;;;;;;0.14;100.00;102452.56;5029740;28;20037;-74
2023/01/31 03:00:42;;;;;;;34.60;13.13;;;;;;;0.08;100.00;102437.75;5029078;28;20463;-74
2023/01/31 03:03:23;;;;;;;38.10;15.32;;;;;;;0.33;100.00;102455.13;5029150;28;20017;-74
2023/01/31 03:06:22;;;;;;;43.10;14.30;;;;;;;0.41;100.00;102478.53;5029620;28;20026;-74
2023/01/31 03:08:52;;;;;;;45.38;15.23;;;;;;;0.38;100.00;102447.63;5029654;28;20033;-74
2023/01/31 03:11:23;;;;;;;47.85;15.00;;;;;;;0.52;100.00;102463.59;5032275;28;20050;-74
2023/01/31 03:14:15;;;;;;;39.42;15.00;;;;;;;0.50;100.00;102455.84;5029231;28;20059;-74
2023/01/31 03:19:51;;;;;;;34.83;14.70;;;;;;;0.47;100.00;102443.75;5031499;28;20040;-74
2023/01/31 03:22:25;;;;;;;47.35;16.38;;;;;;;0.46;100.00;102423.19;5029753;28;20029;-74
2023/01/31 03:24:50;;;;;;;43.65;16.70;;;;;;;0.58;100.00;102444.22;5028089;28;20481;-74
2023/01/31 03:27:17;;;;;;;39.53;16.15;;;;;;;0.46;100.00;102428.31;5029159;28;20036;-74
2023/01/31 03:29:43;;;;;;;42.67;16.23;;;;;;;0.60;100.00;102444.31;5027634;28;20515;-74
2023/01/31 03:32:31;;;;;;;45.42;17.27;;;;;;;0.48;100.00;102424.09;5028767;28;20024;-74
2023/01/31 03:34:57;;;;;;;44.97;16.67;;;;;;;0.62;100.00;102441.00;5029271;28;20036;-74
2023/01/31 03:37:38;;;;;;;44.38;16.70;;;;;;;0.61;100.00;102443.47;5034852;28;20423;-74
2023/01/31 03:40:23;;;;;;;40.58;16.95;;;;;;;0.64;100.00;102439.34;5025524;28;20382;-74
2023/01/31 03:43:00;;;;;;;44.63;16.90;;;;;;;0.35;100.00;102384.22;5029374;28;20037;-74
2023/01/31 03:45:44;;;;;;;42.42;16.92;;;;;;;0.34;100.00;102376.47;5018764;28;20075;-74
2023/01/31 03:48:13;;;;;;;46.00;17.08;;;;;;;0.53;100.00;102411.50;5028898;28;20544;-74
2023/01/31 03:50:43;;;;;;;44.50;17.80;;;;;;;0.38;100.00;102381.78;5029424;28;20078;-74
2023/01/31 03:53:27;;;;;;;40.08;17.55;;;;;;;0.38;100.00;102380.91;5028778;28;20048;-74
2023/01/31 03:56:14;;;;;;;46.30;19.63;;;;;;;0.73;100.00;102425.16;5024358;28;20049;-74
2023/01/31 03:58:46;;;;;;;41.22;17.48;;;;;;;0.63;100.00;102400.81;5022080;28;20026;-74
2023/01/31 04:01:13;;;;;;;44.65;19.00;;;;;;;0.64;100.00;102400.84;5015176;28;20033;-74
2023/01/31 04:03:44;;;;;;;48.28;18.45;;;;;;;0.76;100.00;102420.16;5032690;28;20026;-74
2023/01/31 04:06:10;;;;;;;52.03;18.48;;;;;;;0.76;100.00;102409.91;5028568;28;20017;-74
2023/01/31 04:08:36;;;;;;;42.00;17.23;;;;;;;0.73;100.00;102413.22;5029049;28;20034;-74
2023/01/31 04:11:07;;;;;;;45.22;18.55;;;;;;;0.36;100.00;102354.31;5028812;28;20538;-74
2023/01/31 04:13:33;;;;;;;47.50;18.20;;;;;;;0.67;100.00;102421.50;5030303;28;20045;-74
2023/01/31 04:15:58;;;;;;;45.83;18.00;;;;;;;0.67;100.00;102421.50;5032076;28;20037;-74
2023/01/31 04:18:23;;;;;;;42.75;17.80;;;;;;;0.59;100.00;102402.38;5031542;28;20520;-74
2023/01/31 04:20:49;;;;;;;42.42;18.08;;;;;;;0.63;100.00;102419.63;5047984;27;20061;-74
2023/01/31 04:23:14;;;;;;;41.15;18.17;;;;;;;0.54;100.00;102398.72;5038348;28;20061;-74
2023/01/31 04:25:39;;;;;;;44.63;18.88;;;;;;;0.50;100.00;102401.09;5036274;28;20032;-74
2023/01/31 04:28:05;;;;;;;47.80;18.45;;;;;;;0.11;100.00;102334.44;5033034;27;20072;-73
2023/01/31 04:30:30;;;;;;;47.08;17.90;;;;;;;0.11;100.00;102332.75;5033480;28;20036;-74
2023/01/31 04:32:56;;;;;;;42.53;18.25;;;;;;;0.60;100.00;102414.38;5034617;27;20115;-74
2023/01/31 04:35:21;;;;;;;44.83;18.23;;;;;;;0.31;100.00;102360.94;5034064;28;20362;-74
2023/01/31 04:37:46;;;;;;;52.92;19.13;;;;;;;0.50;100.00;102390.84;5029269;28;20026;-74
2023/01/31 04:40:13;;;;;;;52.78;18.58;;;;;;;0.41;100.00;102394.75;5031353;28;20033;-75
2023/01/31 04:42:38;;;;;;;40.33;18.45;;;;;;;0.33;100.00;102374.72;5034707;28;20116;-74
2023/01/31 04:45:04;;;;;;;47.83;18.70;;;;;;;0.43;100.00;102399.97;5038759;28;20064;-74
2023/01/31 04:47:30;;;;;;;46.35;18.42;;;;;;;0.45;100.00;102411.16;5029785;28;20040;-74
2023/01/31 04:49:55;;;;;;;45.38;17.73;;;;;;;0.41;100.00;102405.00;5033928;27;20540;-74
2023/01/31 04:52:23;;;;;;;53.70;20.40;;;;;;;0.42;100.00;102411.88;5037517;28;20033;-74
2023/01/31 04:54:48;;;;;;;44.05;19.30;;;;;;;0.38;100.00;102406.56;5035496;27;20158;-74
2023/01/31 04:57:13;;;;;;;49.47;19.63;;;;;;;0.39;100.00;102403.19;5030311;28;20112;-74
2023/01/31 04:59:39;;;;;;;48.65;19.30;;;;;;;0.34;100.00;102389.28;5035418;28;20117;-74
2023/01/31 05:02:04;;;;;;;55.00;19.33;;;;;;;0.42;100.00;102393.06;5041547;28;20033;-74
2023/01/31 05:04:29;;;;;;;47.72;21.08;;;;;;;0.46;100.00;102389.81;5047072;28;20033;-74
2023/01/31 05:06:54;;;;;;;53.72;21.63;;;;;;;0.45;100.00;102362.41;5040311;27;20108;-74
2023/01/31 05:09:21;;;;;;;58.33;20.30;;;;;;;0.62;100.00;102381.06;5042223;28;20021;-74
2023/01/31 05:11:47;;;;;;;50.45;20.92;;;;;;;0.56;100.00;102339.78;5031330;28;20067;-74
2023/01/31 05:14:13;;;;;;;55.38;21.88;;;;;;;0.64;100.00;102346.94;5028442;28;20058;-74
2023/01/31 05:16:39;;;;;;;56.83;21.52;;;;;;;0.68;100.00;102341.13;5040485;28;20030;-74
2023/01/31 05:19:04;;;;;;;48.17;21.35;;;;;;;0.76;100.00;102343.16;5029666;28;20520;-74
2023/01/31 05:21:53;;;;;;;50.50;21.75;;;;;;;0.62;100.00;102304.06;5031154;28;20036;-74
2023/01/31 05:24:15;;;;;;;54.85;21.30;;;;;;;1.08;100.00;102362.38;5030077;27;20049;-74
2023/01/31 05:26:40;;;;;;;59.58;21.23;;;;;;;1.11;100.00;102363.41;5031023;28;20014;-74
2023/01/31 05:29:06;;;;;;;48.47;20.05;;;;;;;1.07;100.00;102340.97;5037439;28;20041;-74
2023/01/31 05:31:31;;;;;;;50.67;19.38;;;;;;;1.10;100.00;102342.78;5038416;27;20025;-74
2023/01/31 05:33:57;;;;;;;44.63;18.38;;;;;;;0.89;100.00;102309.44;5030579;28;20526;-74
2023/01/31 05:36:22;;;;;;;45.33;19.02;;;;;;;1.14;100.00;102343.00;5030799;28;20120;-74
2023/01/31 05:38:49;;;;;;;47.22;18.13;;;;;;;1.15;100.00;102356.72;5030249;28;20354;-74
2023/01/31 05:41:14;;;;;;;42.40;17.85;;;;;;;1.08;100.00;102337.59;5030381;28;20057;-74
2023/01/31 05:43:40;;;;;;;45.40;17.60;;;;;;;0.94;100.00;102310.47;5030996;28;20070;-74
2023/01/31 05:46:05;;;;;;;45.17;17.42;;;;;;;1.09;100.00;102339.34;5033967;27;20039;-74
2023/01/31 05:48:30;;;;;;;44.60;17.48;;;;;;;1.02;100.00;102332.22;5030839;28;20022;-74
2023/01/31 05:50:55;;;;;;;44.92;16.55;;;;;;;0.87;100.00;102305.94;5030842;28;20487;-74
2023/01/31 05:53:21;;;;;;;37.67;16.92;;;;;;;1.12;100.00;102348.88;5029736;28;20030;-74
2023/01/31 05:55:47;;;;;;;44.08;16.10;;;;;;;1.12;100.00;102323.19;5026933;28;20032;-74
2023/01/31 05:58:12;;;;;;;50.33;17.42;;;;;;;1.26;100.00;102331.41;5020147;28;20554;-74
2023/01/31 06:00:38;;;;;;;42.95;17.65;;;;;;;1.01;100.00;102273.94;5030453;28;20381;-74
2023/01/31 06:03:03;;;;;;;33.47;16.20;;;;;;;1.38;100.00;102326.75;5034379;27;20025;-74
2023/01/31 06:05:28;;;;;;;43.20;15.45;;;;;;;1.42;100.00;102326.03;5030100;28;20033;-74
2023/01/31 06:07:54;;;;;;;39.13;16.05;;;;;;;1.30;100.00;102310.16;5030528;28;20466;-74
2023/01/31 06:10:19;;;;;;;34.03;14.07;;;;;;;1.46;100.00;102335.63;5030248;28;20461;-73
2023/01/31 06:12:44;;;;;;;33.92;14.50;;;;;;;1.34;100.00;102319.72;5029554;28;20041;-74
2023/01/31 06:15:10;;;;;;;39.88;15.15;;;;;;;1.43;100.00;102330.34;5030436;28;20029;-74
2023/01/31 06:17:36;;;;;;;32.97;13.88;;;;;;;1.45;100.00;102323.59;5030418;28;20571;-74
2023/01/31 06:20:02;;;;;;;30.65;13.30;;;;;;;1.46;100.00;102320.19;5033352;27;20025;-74
2023/01/31 06:22:28;;;;;;;32.85;13.00;;;;;;;1.54;100.00;102323.06;5029859;28;20488;-74
2023/01/31 06:24:53;;;;;;;33.97;12.98;;;;;;;1.62;100.00;102326.78;5030197;28;20056;-74
2023/01/31 06:27:18;;;;;;;38.50;14.00;;;;;;;1.66;100.00;102345.78;5029310;28;20022;-74
2023/01/31 06:29:43;;;;;;;31.60;12.55;;;;;;;1.60;100.00;102337.03;5030275;28;20026;-74
2023/01/31 06:32:09;;;;;;;33.63;12.32;;;;;;;1.67;100.00;102340.69;5031048;28;20097;-74
2023/01/31 06:34:34;;;;;;;29.35;11.70;;;;;;;1.69;100.00;102335.59;5029559;28;20472;-74
2023/01/31 06:36:59;;;;;;;34.00;11.63;;;;;;;1.61;100.00;102328.47;5028400;28;20476;-74
2023/01/31 06:39:25;;;;;;;31.48;12.02;;;;;;;1.46;100.00;102291.94;5032525;28;20033;-75
2023/01/31 06:41:51;;;;;;;34.17;11.43;;;;;;;1.54;100.00;102300.81;5028354;27;20017;-74
2023/01/31 06:44:16;;;;;;;38.80;12.90;;;;;;;1.61;100.00;102313.06;5029579;28;20037;-74
2023/01/31 06:46:41;;;;;;;34.92;12.43;;;;;;;1.73;100.00;102332.31;5030189;28;20021;-74
2023/01/31 06:49:07;;;;;;;30.15;11.57;;;;;;;1.78;100.00;102328.22;5029519;28;20465;-74
2023/01/31 06:51:32;;;;;;;31.20;12.27;;;;;;;1.71;100.00;102304.00;5029568;28;20035;-74
2023/01/31 06:53:58;;;;;;;32.63;11.65;;;;;;;1.76;100.00;102305.00;5033266;27;20022;-74
2023/01/31 06:56:23;;;;;;;29.27;12.63;;;;;;;1.86;100.00;102326.78;5028546;27;20060;-74
2023/01/31 06:58:48;;;;;;;25.95;10.48;;;;;;;1.88;100.00;102318.31;5029586;28;20064;-74
2023/01/31 07:01:14;;;;;;;34.13;12.32;;;;;;;1.89;100.00;102316.63;5029436;28;20051;-74
2023/01/31 07:03:40;;;;;;;30.25;11.73;;;;;;;1.87;100.00;102315.72;5029148;28;20040;-74
2023/01/31 07:06:07;;;;;;;28.20;11.15;;;;;;;1.71;100.00;102286.00;5029679;28;20017;-74
2023/01/31 07:08:33;;;;;;;26.85;11.52;;;;;;;1.92;100.00;102315.84;5028922;28;20033;-74
2023/01/31 07:11:00;;;;;;;29.75;11.43;;;;;;;1.67;100.00;102260.09;5032955;27;20028;-74
2023/01/31 07:13:27;;;;;;;24.52;10.98;;;;;;;1.98;100.00;102316.94;5029316;28;20065;-74
2023/01/31 07:15:53;;;;;;;28.60;11.00;;;;;;;2.04;100.00;102321.44;5029130;28;20350;-74
2023/01/31 07:18:18;;;;;;;28.48;11.65;;;;;;;2.01;100.00;102308.47;5027201;28;20472;-74
2023/01/31 07:20:43;;;;;;;27.45;11.02;;;;;;;2.10;100.00;102306.22;5038316;28;20029;-74
2023/01/31 07:23:08;;;;;;;26.48;10.90;;;;;;;2.14;100.00;102304.63;5041038;27;20433;-73
2023/01/31 07:25:34;;;;;;;36.90;11.45;;;;;;;2.02;100.00;102280.22;5029393;28;20034;-74
2023/01/31 07:28:01;;;;;;;31.30;10.93;;;;;;;2.18;100.00;102293.63;5030532;28;20032;-74
2023/01/31 07:30:27;;;;;;;27.63;10.13;;;;;;;2.09;100.00;102282.19;5028889;28;20029;-74
2023/01/31 07:32:53;;;;;;;26.00;10.13;;;;;;;2.25;100.00;102293.00;5029226;28;20084;-73
2023/01/31 07:35:19;;;;;;;23.85;9.82;;;;;;;2.03;100.00;102247.69;5028544;28;20021;-73
2023/01/31 07:37:45;;;;;;;26.80;9.73;;;;;;;2.39;100.00;102298.59;5032826;27;20157;-74
2023/01/31 07:40:13;;;;;;;26.80;10.65;;;;;;;2.45;100.00;102291.97;5027089;28;20018;-73
2023/01/31 07:42:39;;;;;;;24.65;9.80;;;;;;;2.52;100.00;102288.78;5028514;28;20029;-73
2023/01/31 07:45:05;;;;;;;27.63;9.50;;;;;;;2.48;100.00;102276.59;5070300;27;20108;-74
2023/01/31 07:47:31;;;;;;;27.52;9.20;;;;;;;2.68;100.00;102290.16;5032835;28;20120;-74
2023/01/31 07:49:56;;;;;;;31.80;9.75;;;;;;;2.75;100.00;102278.34;5033789;28;20100;-74
2023/01/31 07:52:21;;;;;;;24.75;9.27;;;;;;;2.69;100.00;102273.00;5036800;28;20036;-74
2023/01/31 07:54:46;;;;;;;25.75;10.05;;;;;;;2.52;100.00;102226.13;5038976;28;20460;-74
2023/01/31 07:57:12;;;;;;;29.58;9.25;;;;;;;2.77;100.00;102276.66;5089027;27;20067;-74
2023/01/31 07:59:37;;;;;;;20.95;8.65;;;;;;;2.79;100.00;102262.16;5031944;28;20022;-74
2023/01/31 08:04:46;;;;;;;;;;;;;;;2.87;100.00;102273.56;5024540;28;20085;-74
2023/01/31 08:07:12;;;;;;;22.42;8.82;;;;;;;2.90;100.00;102255.63;5037995;27;19914;-74
2023/01/31 08:09:38;;;;;;;24.58;8.63;;;;;;;2.92;100.00;102261.69;5032589;28;20528;-73
2023/01/31 08:12:04;;;;;;;23.58;8.82;;;;;;;3.00;100.00;102256.78;5065314;27;20066;-74
2023/01/31 08:14:30;;;;;;;22.35;8.50;;;;;;;3.04;100.00;102245.72;5031625;28;20400;-74
2023/01/31 08:16:55;;;;;;;26.73;8.82;;;;;;;3.05;100.00;102240.63;5032630;28;20022;-74
2023/01/31 08:19:21;;;;;;;23.08;8.82;;;;;;;2.93;100.00;102222.22;5031614;28;20022;-74
2023/01/31 08:21:46;;;;;;;25.95;8.60;;;;;;;3.11;100.00;102251.97;5032049;28;20018;-74
2023/01/31 08:24:12;;;;;;;22.77;9.02;;;;;;;3.17;100.00;102249.53;5046651;27;20042;-74
2023/01/31 08:26:37;;;;;;;25.17;8.63;;;;;;;3.20;100.00;102252.22;5019122;27;20024;-74
2023/01/31 08:29:02;;;;;;;26.52;8.27;;;;;;;3.21;100.00;102238.50;5037624;27;20477;-75
2023/01/31 08:31:28;;;;;;;24.48;8.98;;;;;;;3.29;100.00;102263.66;5046133;27;20029;-74
2023/01/31 08:33:54;;;;;;;19.48;7.80;;;;;;;3.34;100.00;102238.03;5044025;27;20033;-75
2023/01/31 08:36:21;;;;;;;23.00;7.82;;;;;;;3.39;100.00;102244.19;5040134;27;20083;-75
2023/01/31 08:38:48;;;;;;;25.30;8.63;;;;;;;3.43;100.00;102239.97;5113138;27;20072;-74
2023/01/31 08:41:15;;;;;;;20.17;7.72;;;;;;;3.47;100.00;102231.53;5063515;27;20380;-74
2023/01/31 08:43:43;;;;;;;25.80;7.55;;;;;;;3.35;100.00;102205.41;5024615;27;20026;-74
2023/01/31 08:46:09;;;;;;;23.38;8.40;;;;;;;3.57;100.00;102228.38;5035365;27;20034;-74
2023/01/31 08:48:36;;;;;;;16.40;8.35;;;;;;;3.49;100.00;102199.78;5030751;27;20024;-75
2023/01/31 08:51:03;;;;;;;18.30;7.43;;;;;;;3.57;100.00;102223.22;5032110;28;20358;-74
2023/01/31 08:53:29;;;;;;;17.38;8.25;;;;;;;3.63;100.00;102222.47;5031389;28;20030;-76
2023/01/31 08:55:58;;;;;;;20.42;7.40;;;;;;;3.61;100.00;102219.00;5025990;28;20022;-74
2023/01/31 08:58:24;;;;;;;23.42;8.10;;;;;;;3.65;100.00;102223.41;5022381;28;20025;-74
2023/01/31 09:00:50;;;;;;;18.17;7.30;;;;;;;3.71;100.00;102219.28;5031876;28;20022;-74
2023/01/31 09:03:15;;;;;;;19.65;7.20;;;;;;;3.78;100.00;102207.41;5030313;28;20030;-74
2023/01/31 09:05:41;;;;;;;21.63;8.68;;;;;;;3.67;100.00;102178.78;5031628;28;20030;-74
2023/01/31 09:08:06;;;;;;;21.67;7.25;;;;;;;3.92;100.00;102198.34;5031158;28;20544;-74
2023/01/31 09:10:31;;;;;;;14.27;6.47;;;;;;;3.98;100.00;102195.03;5031217;28;20026;-74
2023/01/31 09:12:59;;;;;;;20.95;6.47;;;;;;;4.07;100.00;102212.47;5031308;28;20120;-74
2023/01/31 09:15:25;;;;;;;21.45;6.45;;;;;;;4.12;100.00;102192.78;5030607;28;20033;-74
2023/01/31 09:17:51;;;;;;;18.10;6.50;;;;;;;4.16;100.00;102199.78;5031343;28;20013;-74
2023/01/31 09:20:16;;;;;;;20.65;6.80;;;;;;;4.08;100.00;102188.38;5027572;28;20033;-74
2023/01/31 09:22:41;;;;;;;19.90;6.90;;;;;;;4.24;100.00;102190.50;5029929;28;20021;-74
2023/01/31 09:25:07;;;;;;;17.13;6.40;;;;;;;4.33;100.00;102198.47;5033991;28;20488;-74
2023/01/31 09:27:35;;;;;;;25.33;7.32;;;;;;;4.43;100.00;102186.66;5030969;28;20041;-74
2023/01/31 09:30:00;;;;;;;20.58;6.95;;;;;;;4.52;100.00;102167.94;5030914;28;20030;-75
2023/01/31 09:32:25;;;;;;;16.17;6.03;;;;;;;4.57;100.00;102164.59;5030855;28;20034;-75
2023/01/31 09:34:52;;;;;;;17.52;6.40;;;;;;;4.68;100.00;102178.63;5034668;28;20022;-75
2023/01/31 09:37:17;;;;;;;19.65;6.55;;;;;;;4.71;100.00;102170.09;5030343;28;20495;-75
2023/01/31 09:39:42;;;;;;;20.70;6.25;;;;;;;4.72;100.00;102171.81;5070740;27;20019;-75
2023/01/31 09:42:27;;;;;;;18.02;6.65;;;;;;;4.66;100.00;102167.38;5032566;28;20033;-74
2023/01/31 09:44:55;;;;;;;19.75;6.80;;;;;;;4.76;100.00;102185.69;5103412;27;20030;-75
2023/01/31 09:47:40;;;;;;;22.17;7.45;;;;;;;4.84;100.00;102186.69;5029643;28;20104;-75
2023/01/31 09:50:17;;;;;;;20.27;7.40;;;;;;;4.88;100.00;102178.19;5037617;28;20040;-74
2023/01/31 09:52:42;;;;;;;22.65;6.57;;;;;;;4.95;100.00;102174.03;5028338;28;20022;-74
2023/01/31 09:55:30;;;;;;;21.10;6.93;;;;;;;5.21;100.00;102169.38;5030731;28;20036;-74
2023/01/31 09:58:15;;;;;;;19.63;7.50;;;;;;;5.32;100.00;102175.63;5030172;28;20124;-74
2023/01/31 10:01:08;;;;;;;17.25;6.30;;;;;;;5.51;100.00;102166.50;5034196;27;20026;-74
2023/01/31 10:03:50;;;;;;;20.50;7.00;;;;;;;5.64;100.00;102158.13;5030666;28;20033;-74
2023/01/31 10:06:52;;;;;;;16.25;7.03;;;;;;;5.64;100.00;102171.94;5029365;28;20068;-74
2023/01/31 10:09:26;;;;;;;22.08;7.15;;;;;;;5.53;100.00;102176.06;5028776;28;20037;-74
2023/01/31 10:11:58;;;;;;;26.35;7.43;;;;;;;5.45;100.00;102193.13;5030017;28;20112;-74
2023/01/31 10:14:26;;;;;;;14.13;6.75;;;;;;;5.48;100.00;102181.97;5029751;28;20048;-74
2023/01/31 10:17:12;;;;;;;23.73;7.45;;;;;;;5.40;100.00;102187.88;5038990;27;20498;-73
2023/01/31 10:19:48;;;;;;;20.33;7.45;;;;;;;5.40;100.00;102182.72;5061944;27;20373;-73
2023/01/31 10:22:38;;;;;;;21.27;7.93;;;;;;;5.31;100.00;102169.59;5038115;27;20041;-74
2023/01/31 10:25:25;;;;;;;22.08;8.45;;;;;;;5.39;100.00;102144.75;5018980;28;20029;-73
2023/01/31 10:27:56;;;;;;;19.70;8.20;;;;;;;5.43;100.00;102143.09;5029712;28;20022;-73
2023/01/31 10:30:27;;;;;;;25.75;9.30;;;;;;;5.49;100.00;102157.84;5030042;28;20480;-73
2023/01/31 10:32:59;;;;;;;23.65;9.05;;;;;;;5.44;100.00;102167.25;5029478;28;20486;-73
2023/01/31 10:35:39;;;;;;;19.00;8.90;;;;;;;5.32;100.00;102171.31;5082736;27;20094;-74
2023/01/31 10:38:29;;;;;;;19.25;9.80;;;;;;;5.26;100.00;102175.50;5027903;28;20029;-74
2023/01/31 10:41:11;;;;;;;24.00;11.40;;;;;;;5.22;100.00;102178.88;5022213;28;20494;-74
2023/01/31 10:43:48;;;;;;;25.88;10.23;;;;;;;5.22;100.00;102179.75;5029845;27;20503;-74
2023/01/31 10:46:14;;;;;;;24.58;11.35;;;;;;;5.35;100.00;102175.69;5029787;28;20025;-75
2023/01/31 10:48:42;;;;;;;23.63;11.00;;;;;;;5.61;100.00;102163.25;5029515;28;20376;-76
2023/01/31 10:51:29;;;;;;;22.27;11.30;;;;;;;5.87;100.00;102153.34;5036291;28;20029;-76
2023/01/31 10:54:28;;;;;;;25.95;12.55;;;;;;;5.94;100.00;102155.22;5017332;28;20041;-76
2023/01/31 10:56:53;;;;;;;28.42;12.80;;;;;;;5.80;100.00;102141.16;5016802;28;20034;-76
2023/01/31 10:59:22;;;;;;;26.15;12.98;;;;;;;5.76;100.00;102139.38;5035234;27;20035;-74
2023/01/31 11:01:48;;;;;;;26.25;12.63;;;;;;;5.75;100.00;102145.38;5029805;28;20030;-74
2023/01/31 11:04:45;;;;;;;23.15;12.63;;;;;;;5.75;100.00;102133.28;5071219;27;20047;-75
2023/01/31 11:07:11;;;;;;;28.25;12.40;;;;;;;5.91;100.00;102130.97;4994061;28;20053;-75
2023/01/31 11:09:40;;;;;;;25.77;13.05;;;;;;;5.97;100.00;102141.47;5029105;28;20025;-75
2023/01/31 11:12:07;;;;;;;26.85;13.52;;;;;;;5.96;100.00;102139.72;5021793;28;20033;-80
2023/01/31 11:14:33;;;;;;;25.63;13.57;;;;;;;5.96;100.00;102125.06;5051227;27;20045;-74
2023/01/31 11:17:22;;;;;;;28.02;13.82;;;;;;;6.04;100.00;102112.25;5033416;28;20089;-74
2023/01/31 11:19:54;;;;;;;29.83;13.02;;;;;;;6.03;100.00;102090.66;5023563;28;20041;-74
2023/01/31 11:22:23;;;;;;;27.77;12.93;;;;;;;6.33;100.00;102120.44;5028176;28;20425;-74
2023/01/31 11:24:50;;;;;;;27.20;12.73;;;;;;;6.32;100.00;102119.56;5029015;28;20492;-73
2023/01/31 11:27:30;;;;;;;26.23;12.85;;;;;;;6.37;100.00;102111.84;5029378;28;20025;-74
2023/01/31 11:29:58;;;;;;;29.23;11.65;;;;;;;6.42;100.00;102091.22;5033118;28;20037;-73
2023/01/31 11:32:27;;;;;;;25.92;13.15;;;;;;;6.39;100.00;102088.59;5029471;28;20033;-73
2023/01/31 11:35:21;;;;;;;30.20;13.65;;;;;;;6.48;100.00;102102.53;5027555;28;20030;-73